sensor_id;sensor_type;location;lat;lon;timestamp;P1;durP1;ratioP1;P2;durP2;ratioP2
55220;SDS011;41089;51.448;6.604;2023-08-30T00:05:23;14.77;;;13.10;;
55220;SDS011;41089;51.448;6.604;2023-08-30T00:11:24;12.73;;;11.43;;
55220;SDS011;41089;51.448;6.604;2023-08-30T00:17:24;15.27;;;13.10;;
55220;SDS011;41089;51.448;6.604;2023-08-30T00:23:25;14.80;;;13.27;;
55220;SDS011;41089;51.448;6.604;2023-08-30T00:29:25;17.63;;;15.43;;
55220;SDS011;41089;51.448;6.604;2023-08-30T00:35:27;17.02;;;15.43;;
55220;SDS011;41089;51.448;6.604;2023-08-30T00:41:27;15.40;;;13.95;;
55220;SDS011;41089;51.448;6.604;2023-08-30T00:47:27;17.37;;;15.53;;
55220;SDS011;41089;51.448;6.604;2023-08-30T00:53:28;16.80;;;13.80;;
55220;SDS011;41089;51.448;6.604;2023-08-30T00:59:28;17.63;;;15.73;;
55220;SDS011;41089;51.448;6.604;2023-08-30T01:05:29;16.27;;;14.63;;
55220;SDS011;41089;51.448;6.604;2023-08-30T01:17:41;18.52;;;16.67;;
55220;SDS011;41089;51.448;6.604;2023-08-30T01:23:47;19.00;;;15.23;;
55220;SDS011;41089;51.448;6.604;2023-08-30T01:29:50;20.40;;;18.00;;
55220;SDS011;41089;51.448;6.604;2023-08-30T01:35:58;20.52;;;18.40;;
55220;SDS011;41089;51.448;6.604;2023-08-30T01:41:59;18.73;;;16.75;;
55220;SDS011;41089;51.448;6.604;2023-08-30T01:48:00;20.40;;;18.17;;
55220;SDS011;41089;51.448;6.604;2023-08-30T01:54:01;23.33;;;19.00;;
55220;SDS011;41089;51.448;6.604;2023-08-30T02:00:02;20.25;;;18.25;;
55220;SDS011;41089;51.448;6.604;2023-08-30T02:06:07;18.40;;;16.60;;
55220;SDS011;41089;51.448;6.604;2023-08-30T02:12:12;20.15;;;18.02;;
55220;SDS011;41089;51.448;6.604;2023-08-30T02:18:13;18.02;;;16.38;;
55220;SDS011;41089;51.448;6.604;2023-08-30T02:24:14;17.52;;;15.48;;
55220;SDS011;41089;51.448;6.604;2023-08-30T02:30:14;22.67;;;18.47;;
55220;SDS011;41089;51.448;6.604;2023-08-30T02:36:16;21.55;;;19.35;;
55220;SDS011;41089;51.448;6.604;2023-08-30T02:42:16;24.67;;;18.93;;
55220;SDS011;41089;51.448;6.604;2023-08-30T02:48:17;18.37;;;16.57;;
55220;SDS011;41089;51.448;6.604;2023-08-30T02:54:17;19.23;;;17.23;;
55220;SDS011;41089;51.448;6.604;2023-08-30T03:06:18;19.23;;;17.20;;
55220;SDS011;41089;51.448;6.604;2023-08-30T03:12:18;19.27;;;17.33;;
55220;SDS011;41089;51.448;6.604;2023-08-30T03:18:19;19.63;;;17.67;;
55220;SDS011;41089;51.448;6.604;2023-08-30T03:24:20;19.23;;;17.23;;
55220;SDS011;41089;51.448;6.604;2023-08-30T03:30:20;19.27;;;17.08;;
55220;SDS011;41089;51.448;6.604;2023-08-30T03:36:21;25.80;;;21.05;;
55220;SDS011;41089;51.448;6.604;2023-08-30T03:42:21;36.10;;;24.50;;
55220;SDS011;41089;51.448;6.604;2023-08-30T03:48:21;27.23;;;22.65;;
55220;SDS011;41089;51.448;6.604;2023-08-30T03:54:22;21.70;;;19.33;;
55220;SDS011;41089;51.448;6.604;2023-08-30T04:00:22;20.13;;;18.20;;
55220;SDS011;41089;51.448;6.604;2023-08-30T04:06:22;20.98;;;18.17;;
55220;SDS011;41089;51.448;6.604;2023-08-30T04:12:23;20.77;;;18.67;;
55220;SDS011;41089;51.448;6.604;2023-08-30T04:18:23;20.50;;;18.33;;
55220;SDS011;41089;51.448;6.604;2023-08-30T04:24:24;24.38;;;20.40;;
55220;SDS011;41089;51.448;6.604;2023-08-30T04:30:24;18.88;;;16.88;;
55220;SDS011;41089;51.448;6.604;2023-08-30T04:36:25;26.60;;;18.43;;
55220;SDS011;41089;51.448;6.604;2023-08-30T04:42:26;23.13;;;19.98;;
55220;SDS011;41089;51.448;6.604;2023-08-30T04:48:26;21.90;;;19.43;;
55220;SDS011;41089;51.448;6.604;2023-08-30T04:54:28;19.85;;;17.83;;
55220;SDS011;41089;51.448;6.604;2023-08-30T05:00:28;23.52;;;19.42;;
55220;SDS011;41089;51.448;6.604;2023-08-30T05:06:29;20.45;;;18.50;;
55220;SDS011;41089;51.448;6.604;2023-08-30T05:12:29;19.90;;;17.92;;
55220;SDS011;41089;51.448;6.604;2023-08-30T05:18:30;19.83;;;17.73;;
55220;SDS011;41089;51.448;6.604;2023-08-30T05:24:30;23.73;;;18.63;;
55220;SDS011;41089;51.448;6.604;2023-08-30T05:30:30;22.17;;;19.07;;
55220;SDS011;41089;51.448;6.604;2023-08-30T05:36:31;25.45;;;18.77;;
55220;SDS011;41089;51.448;6.604;2023-08-30T05:42:31;25.30;;;19.27;;
55220;SDS011;41089;51.448;6.604;2023-08-30T05:48:33;26.15;;;19.38;;
55220;SDS011;41089;51.448;6.604;2023-08-30T05:54:34;19.95;;;17.77;;
55220;SDS011;41089;51.448;6.604;2023-08-30T06:00:34;21.58;;;18.70;;
55220;SDS011;41089;51.448;6.604;2023-08-30T06:06:35;23.25;;;17.30;;
55220;SDS011;41089;51.448;6.604;2023-08-30T06:12:35;17.58;;;15.40;;
55220;SDS011;41089;51.448;6.604;2023-08-30T06:18:36;19.88;;;15.75;;
55220;SDS011;41089;51.448;6.604;2023-08-30T06:24:37;20.85;;;16.48;;
55220;SDS011;41089;51.448;6.604;2023-08-30T06:30:38;18.97;;;15.57;;
55220;SDS011;41089;51.448;6.604;2023-08-30T06:36:38;19.77;;;15.33;;
55220;SDS011;41089;51.448;6.604;2023-08-30T06:42:38;18.63;;;14.00;;
55220;SDS011;41089;51.448;6.604;2023-08-30T06:48:39;16.20;;;14.52;;
55220;SDS011;41089;51.448;6.604;2023-08-30T06:54:39;16.50;;;14.83;;
55220;SDS011;41089;51.448;6.604;2023-08-30T07:00:39;14.45;;;12.95;;
55220;SDS011;41089;51.448;6.604;2023-08-30T07:06:40;15.33;;;12.90;;
55220;SDS011;41089;51.448;6.604;2023-08-30T07:12:40;16.90;;;13.48;;
55220;SDS011;41089;51.448;6.604;2023-08-30T07:18:41;12.70;;;10.95;;
55220;SDS011;41089;51.448;6.604;2023-08-30T07:24:42;13.52;;;9.80;;
55220;SDS011;41089;51.448;6.604;2023-08-30T07:30:43;11.80;;;9.10;;
55220;SDS011;41089;51.448;6.604;2023-08-30T07:36:43;12.80;;;9.60;;
55220;SDS011;41089;51.448;6.604;2023-08-30T07:42:43;12.27;;;8.43;;
55220;SDS011;41089;51.448;6.604;2023-08-30T07:48:44;9.27;;;7.70;;
55220;SDS011;41089;51.448;6.604;2023-08-30T07:54:44;10.50;;;7.22;;
55220;SDS011;41089;51.448;6.604;2023-08-30T08:00:45;9.03;;;7.50;;
55220;SDS011;41089;51.448;6.604;2023-08-30T08:06:46;10.23;;;7.07;;
55220;SDS011;41089;51.448;6.604;2023-08-30T08:12:46;7.43;;;6.63;;
55220;SDS011;41089;51.448;6.604;2023-08-30T08:18:46;10.77;;;7.10;;
55220;SDS011;41089;51.448;6.604;2023-08-30T08:24:47;11.25;;;7.57;;
55220;SDS011;41089;51.448;6.604;2023-08-30T08:30:48;9.40;;;6.80;;
55220;SDS011;41089;51.448;6.604;2023-08-30T08:36:51;11.07;;;6.82;;
55220;SDS011;41089;51.448;6.604;2023-08-30T08:42:51;6.70;;;5.85;;
55220;SDS011;41089;51.448;6.604;2023-08-30T08:48:52;10.57;;;6.82;;
55220;SDS011;41089;51.448;6.604;2023-08-30T08:54:54;7.43;;;5.25;;
55220;SDS011;41089;51.448;6.604;2023-08-30T09:00:54;8.38;;;5.93;;
55220;SDS011;41089;51.448;6.604;2023-08-30T09:06:55;8.48;;;5.95;;
55220;SDS011;41089;51.448;6.604;2023-08-30T09:12:56;8.17;;;6.43;;
55220;SDS011;41089;51.448;6.604;2023-08-30T09:19:00;9.68;;;8.70;;
55220;SDS011;41089;51.448;6.604;2023-08-30T09:25:01;8.95;;;7.68;;
55220;SDS011;41089;51.448;6.604;2023-08-30T09:31:01;8.82;;;7.07;;
55220;SDS011;41089;51.448;6.604;2023-08-30T09:37:03;8.65;;;7.03;;
55220;SDS011;41089;51.448;6.604;2023-08-30T09:43:04;8.73;;;7.47;;
55220;SDS011;41089;51.448;6.604;2023-08-30T09:49:05;12.65;;;8.95;;
55220;SDS011;41089;51.448;6.604;2023-08-30T09:55:05;8.33;;;7.40;;
55220;SDS011;41089;51.448;6.604;2023-08-30T10:01:06;10.85;;;8.45;;
55220;SDS011;41089;51.448;6.604;2023-08-30T10:07:07;10.02;;;8.98;;
55220;SDS011;41089;51.448;6.604;2023-08-30T10:13:08;15.65;;;10.18;;
55220;SDS011;41089;51.448;6.604;2023-08-30T10:25:21;10.75;;;8.73;;
55220;SDS011;41089;51.448;6.604;2023-08-30T10:31:24;9.27;;;8.00;;
55220;SDS011;41089;51.448;6.604;2023-08-30T10:37:26;9.10;;;8.20;;
55220;SDS011;41089;51.448;6.604;2023-08-30T10:43:31;10.27;;;9.18;;
55220;SDS011;41089;51.448;6.604;2023-08-30T10:49:38;8.57;;;7.45;;
55220;SDS011;41089;51.448;6.604;2023-08-30T10:55:39;6.88;;;5.93;;
55220;SDS011;41089;51.448;6.604;2023-08-30T11:01:40;6.85;;;6.15;;
55220;SDS011;41089;51.448;6.604;2023-08-30T11:07:41;7.15;;;6.43;;
55220;SDS011;41089;51.448;6.604;2023-08-30T11:13:41;6.47;;;5.77;;
55220;SDS011;41089;51.448;6.604;2023-08-30T11:19:41;6.30;;;5.60;;
55220;SDS011;41089;51.448;6.604;2023-08-30T11:25:42;6.10;;;5.50;;
55220;SDS011;41089;51.448;6.604;2023-08-30T11:31:42;6.57;;;5.63;;
55220;SDS011;41089;51.448;6.604;2023-08-30T11:37:45;8.02;;;5.55;;
55220;SDS011;41089;51.448;6.604;2023-08-30T11:43:47;6.20;;;4.90;;
55220;SDS011;41089;51.448;6.604;2023-08-30T11:49:48;5.47;;;4.97;;
55220;SDS011;41089;51.448;6.604;2023-08-30T11:55:49;6.13;;;5.45;;
55220;SDS011;41089;51.448;6.604;2023-08-30T12:01:53;6.80;;;5.30;;
55220;SDS011;41089;51.448;6.604;2023-08-30T12:07:53;5.47;;;5.07;;
55220;SDS011;41089;51.448;6.604;2023-08-30T12:13:54;5.43;;;4.93;;
55220;SDS011;41089;51.448;6.604;2023-08-30T12:20:02;7.32;;;5.82;;
55220;SDS011;41089;51.448;6.604;2023-08-30T12:26:06;5.72;;;5.22;;
55220;SDS011;41089;51.448;6.604;2023-08-30T12:32:08;6.13;;;5.53;;
55220;SDS011;41089;51.448;6.604;2023-08-30T12:38:08;6.73;;;6.07;;
55220;SDS011;41089;51.448;6.604;2023-08-30T12:44:09;6.22;;;5.63;;
55220;SDS011;41089;51.448;6.604;2023-08-30T12:50:09;7.28;;;6.28;;
55220;SDS011;41089;51.448;6.604;2023-08-30T12:56:10;7.18;;;6.50;;
55220;SDS011;41089;51.448;6.604;2023-08-30T13:02:10;6.15;;;5.55;;
55220;SDS011;41089;51.448;6.604;2023-08-30T13:08:11;5.25;;;4.75;;
55220;SDS011;41089;51.448;6.604;2023-08-30T13:14:11;7.40;;;4.72;;
55220;SDS011;41089;51.448;6.604;2023-08-30T13:20:11;7.55;;;4.45;;
55220;SDS011;41089;51.448;6.604;2023-08-30T13:26:12;4.73;;;4.33;;
55220;SDS011;41089;51.448;6.604;2023-08-30T13:32:12;7.55;;;5.78;;
55220;SDS011;41089;51.448;6.604;2023-08-30T13:38:12;5.47;;;4.97;;
55220;SDS011;41089;51.448;6.604;2023-08-30T13:44:13;5.50;;;5.00;;
55220;SDS011;41089;51.448;6.604;2023-08-30T13:50:14;8.80;;;5.28;;
55220;SDS011;41089;51.448;6.604;2023-08-30T13:56:14;7.87;;;5.00;;
55220;SDS011;41089;51.448;6.604;2023-08-30T14:02:15;6.93;;;6.22;;
55220;SDS011;41089;51.448;6.604;2023-08-30T14:08:15;7.83;;;6.07;;
55220;SDS011;41089;51.448;6.604;2023-08-30T14:14:16;6.35;;;5.18;;
55220;SDS011;41089;51.448;6.604;2023-08-30T14:20:16;6.73;;;6.07;;
55220;SDS011;41089;51.448;6.604;2023-08-30T14:26:17;6.20;;;5.07;;
55220;SDS011;41089;51.448;6.604;2023-08-30T14:32:17;6.35;;;5.75;;
55220;SDS011;41089;51.448;6.604;2023-08-30T14:38:17;7.65;;;5.57;;
55220;SDS011;41089;51.448;6.604;2023-08-30T14:44:18;7.10;;;6.28;;
55220;SDS011;41089;51.448;6.604;2023-08-30T14:50:20;8.30;;;7.60;;
55220;SDS011;41089;51.448;6.604;2023-08-30T14:56:20;7.87;;;6.60;;
55220;SDS011;41089;51.448;6.604;2023-08-30T15:02:20;8.47;;;7.67;;
55220;SDS011;41089;51.448;6.604;2023-08-30T15:08:22;9.88;;;7.00;;
55220;SDS011;41089;51.448;6.604;2023-08-30T15:14:23;8.82;;;7.93;;
55220;SDS011;41089;51.448;6.604;2023-08-30T15:20:24;10.57;;;8.63;;
55220;SDS011;41089;51.448;6.604;2023-08-30T15:26:24;8.50;;;7.63;;
55220;SDS011;41089;51.448;6.604;2023-08-30T15:32:25;8.07;;;7.10;;
55220;SDS011;41089;51.448;6.604;2023-08-30T15:38:25;8.07;;;7.27;;
55220;SDS011;41089;51.448;6.604;2023-08-30T15:44:26;11.02;;;8.07;;
55220;SDS011;41089;51.448;6.604;2023-08-30T15:50:26;8.27;;;6.97;;
55220;SDS011;41089;51.448;6.604;2023-08-30T15:56:27;8.07;;;7.28;;
55220;SDS011;41089;51.448;6.604;2023-08-30T16:02:28;8.38;;;7.55;;
55220;SDS011;41089;51.448;6.604;2023-08-30T16:08:28;8.53;;;7.70;;
55220;SDS011;41089;51.448;6.604;2023-08-30T16:14:29;12.13;;;8.60;;
55220;SDS011;41089;51.448;6.604;2023-08-30T16:20:30;10.88;;;7.95;;
55220;SDS011;41089;51.448;6.604;2023-08-30T16:26:30;11.48;;;8.60;;
55220;SDS011;41089;51.448;6.604;2023-08-30T16:32:31;10.45;;;6.95;;
55220;SDS011;41089;51.448;6.604;2023-08-30T16:38:31;9.67;;;5.63;;
55220;SDS011;41089;51.448;6.604;2023-08-30T16:44:33;9.38;;;3.88;;
55220;SDS011;41089;51.448;6.604;2023-08-30T16:50:34;4.72;;;2.90;;
55220;SDS011;41089;51.448;6.604;2023-08-30T16:56:35;7.72;;;2.65;;
55220;SDS011;41089;51.448;6.604;2023-08-30T17:02:35;7.80;;;2.72;;
55220;SDS011;41089;51.448;6.604;2023-08-30T17:08:36;7.93;;;4.38;;
55220;SDS011;41089;51.448;6.604;2023-08-30T17:14:36;7.38;;;2.78;;
55220;SDS011;41089;51.448;6.604;2023-08-30T17:20:37;6.87;;;2.80;;
55220;SDS011;41089;51.448;6.604;2023-08-30T17:26:37;9.35;;;3.15;;
55220;SDS011;41089;51.448;6.604;2023-08-30T17:32:38;7.90;;;2.88;;
55220;SDS011;41089;51.448;6.604;2023-08-30T17:38:38;9.90;;;3.08;;
55220;SDS011;41089;51.448;6.604;2023-08-30T17:44:40;7.88;;;3.08;;
55220;SDS011;41089;51.448;6.604;2023-08-30T17:50:43;6.43;;;4.03;;
55220;SDS011;41089;51.448;6.604;2023-08-30T17:56:43;9.73;;;4.23;;
55220;SDS011;41089;51.448;6.604;2023-08-30T18:02:44;15.97;;;14.47;;
55220;SDS011;41089;51.448;6.604;2023-08-30T18:08:44;7.85;;;6.88;;
55220;SDS011;41089;51.448;6.604;2023-08-30T18:14:45;7.35;;;2.70;;
55220;SDS011;41089;51.448;6.604;2023-08-30T18:20:47;4.80;;;2.50;;
55220;SDS011;41089;51.448;6.604;2023-08-30T18:26:49;7.70;;;2.67;;
55220;SDS011;41089;51.448;6.604;2023-08-30T18:32:50;10.02;;;3.00;;
55220;SDS011;41089;51.448;6.604;2023-08-30T18:38:53;7.80;;;2.85;;
55220;SDS011;41089;51.448;6.604;2023-08-30T18:44:55;6.78;;;3.28;;
55220;SDS011;41089;51.448;6.604;2023-08-30T18:50:57;7.53;;;3.00;;
55220;SDS011;41089;51.448;6.604;2023-08-30T18:56:59;7.43;;;2.70;;
55220;SDS011;41089;51.448;6.604;2023-08-30T19:02:59;7.38;;;2.75;;
55220;SDS011;41089;51.448;6.604;2023-08-30T19:09:00;13.25;;;2.95;;
55220;SDS011;41089;51.448;6.604;2023-08-30T19:15:00;7.70;;;3.28;;
55220;SDS011;41089;51.448;6.604;2023-08-30T19:21:02;7.57;;;3.03;;
55220;SDS011;41089;51.448;6.604;2023-08-30T19:27:04;13.75;;;3.92;;
55220;SDS011;41089;51.448;6.604;2023-08-30T19:33:04;5.20;;;2.80;;
55220;SDS011;41089;51.448;6.604;2023-08-30T19:39:05;8.45;;;3.30;;
55220;SDS011;41089;51.448;6.604;2023-08-30T19:45:07;7.60;;;3.30;;
55220;SDS011;41089;51.448;6.604;2023-08-30T19:51:08;6.22;;;2.92;;
55220;SDS011;41089;51.448;6.604;2023-08-30T19:57:08;5.80;;;3.40;;
55220;SDS011;41089;51.448;6.604;2023-08-30T20:03:08;8.02;;;3.60;;
55220;SDS011;41089;51.448;6.604;2023-08-30T20:09:09;6.30;;;3.70;;
55220;SDS011;41089;51.448;6.604;2023-08-30T20:15:09;9.25;;;4.00;;
55220;SDS011;41089;51.448;6.604;2023-08-30T20:21:13;11.95;;;4.03;;
55220;SDS011;41089;51.448;6.604;2023-08-30T20:27:15;8.38;;;4.30;;
55220;SDS011;41089;51.448;6.604;2023-08-30T20:33:15;9.52;;;3.67;;
55220;SDS011;41089;51.448;6.604;2023-08-30T20:39:16;9.05;;;4.03;;
55220;SDS011;41089;51.448;6.604;2023-08-30T20:45:16;8.20;;;5.40;;
55220;SDS011;41089;51.448;6.604;2023-08-30T20:51:16;7.10;;;3.67;;
55220;SDS011;41089;51.448;6.604;2023-08-30T20:57:17;7.60;;;4.10;;
55220;SDS011;41089;51.448;6.604;2023-08-30T21:09:19;7.97;;;3.80;;
55220;SDS011;41089;51.448;6.604;2023-08-30T21:15:19;9.95;;;3.92;;
55220;SDS011;41089;51.448;6.604;2023-08-30T21:21:20;7.18;;;3.72;;
55220;SDS011;41089;51.448;6.604;2023-08-30T21:27:20;7.07;;;3.83;;
55220;SDS011;41089;51.448;6.604;2023-08-30T21:33:20;7.85;;;4.30;;
55220;SDS011;41089;51.448;6.604;2023-08-30T21:39:22;9.48;;;4.88;;
55220;SDS011;41089;51.448;6.604;2023-08-30T21:45:23;7.93;;;4.17;;
55220;SDS011;41089;51.448;6.604;2023-08-30T21:51:23;8.60;;;3.40;;
55220;SDS011;41089;51.448;6.604;2023-08-30T22:03:23;6.60;;;3.47;;
55220;SDS011;41089;51.448;6.604;2023-08-30T22:15:25;8.63;;;2.90;;
55220;SDS011;41089;51.448;6.604;2023-08-30T22:21:27;7.25;;;2.72;;
55220;SDS011;41089;51.448;6.604;2023-08-30T22:27:27;5.40;;;3.00;;
55220;SDS011;41089;51.448;6.604;2023-08-30T22:39:31;5.47;;;2.67;;
55220;SDS011;41089;51.448;6.604;2023-08-30T22:45:31;5.83;;;2.90;;
55220;SDS011;41089;51.448;6.604;2023-08-30T22:51:32;6.57;;;3.20;;
55220;SDS011;41089;51.448;6.604;2023-08-30T22:57:33;6.03;;;2.87;;
55220;SDS011;41089;51.448;6.604;2023-08-30T23:03:33;5.03;;;2.80;;
55220;SDS011;41089;51.448;6.604;2023-08-30T23:09:35;9.63;;;3.10;;
55220;SDS011;41089;51.448;6.604;2023-08-30T23:15:36;4.65;;;2.50;;
55220;SDS011;41089;51.448;6.604;2023-08-30T23:21:37;7.40;;;2.88;;
55220;SDS011;41089;51.448;6.604;2023-08-30T23:27:37;5.60;;;3.13;;
55220;SDS011;41089;51.448;6.604;2023-08-30T23:33:38;8.10;;;3.20;;
55220;SDS011;41089;51.448;6.604;2023-08-30T23:39:38;6.85;;;3.08;;
55220;SDS011;41089;51.448;6.604;2023-08-30T23:45:39;6.07;;;3.50;;
55220;SDS011;41089;51.448;6.604;2023-08-30T23:51:39;9.25;;;3.22;;
55220;SDS011;41089;51.448;6.604;2023-08-30T23:57:40;6.03;;;3.63;;
